sensor_id;sensor_type;location;lat;lon;timestamp;P1;durP1;ratioP1;P2;durP2;ratioP2
48963;SDS011;34776;48.180;16.420;2024-03-06T00:01:54;26.70;;;14.40;;
48963;SDS011;34776;48.180;16.420;2024-03-06T00:04:20;28.10;;;15.25;;
48963;SDS011;34776;48.180;16.420;2024-03-06T00:06:45;29.25;;;15.98;;
48963;SDS011;34776;48.180;16.420;2024-03-06T00:09:11;31.17;;;15.27;;
48963;SDS011;34776;48.180;16.420;2024-03-06T00:11:36;23.67;;;14.55;;
48963;SDS011;34776;48.180;16.420;2024-03-06T00:14:02;32.00;;;17.40;;
48963;SDS011;34776;48.180;16.420;2024-03-06T00:16:27;26.17;;;13.98;;
48963;SDS011;34776;48.180;16.420;2024-03-06T00:18:53;26.85;;;14.77;;
48963;SDS011;34776;48.180;16.420;2024-03-06T00:21:19;28.23;;;16.17;;
48963;SDS011;34776;48.180;16.420;2024-03-06T00:23:45;30.27;;;17.25;;
48963;SDS011;34776;48.180;16.420;2024-03-06T00:26:13;36.63;;;19.52;;
48963;SDS011;34776;48.180;16.420;2024-03-06T00:28:39;35.15;;;17.55;;
48963;SDS011;34776;48.180;16.420;2024-03-06T00:31:08;32.03;;;17.85;;
48963;SDS011;34776;48.180;16.420;2024-03-06T00:33:35;35.75;;;18.10;;
48963;SDS011;34776;48.180;16.420;2024-03-06T00:36:00;30.92;;;16.52;;
48963;SDS011;34776;48.180;16.420;2024-03-06T00:38:25;32.20;;;18.10;;
48963;SDS011;34776;48.180;16.420;2024-03-06T00:40:54;38.58;;;20.02;;
48963;SDS011;34776;48.180;16.420;2024-03-06T00:43:22;30.70;;;16.48;;
48963;SDS011;34776;48.180;16.420;2024-03-06T00:45:47;30.88;;;17.88;;
48963;SDS011;34776;48.180;16.420;2024-03-06T00:48:14;35.83;;;18.92;;
48963;SDS011;34776;48.180;16.420;2024-03-06T00:50:41;34.20;;;18.38;;
48963;SDS011;34776;48.180;16.420;2024-03-06T00:53:06;38.17;;;18.10;;
48963;SDS011;34776;48.180;16.420;2024-03-06T00:55:32;31.35;;;17.70;;
48963;SDS011;34776;48.180;16.420;2024-03-06T00:58:00;38.90;;;20.15;;
48963;SDS011;34776;48.180;16.420;2024-03-06T01:00:29;37.85;;;19.08;;
48963;SDS011;34776;48.180;16.420;2024-03-06T01:02:55;30.17;;;16.98;;
48963;SDS011;34776;48.180;16.420;2024-03-06T01:05:20;40.53;;;18.65;;
48963;SDS011;34776;48.180;16.420;2024-03-06T01:07:45;29.00;;;16.00;;
48963;SDS011;34776;48.180;16.420;2024-03-06T01:10:12;39.60;;;19.23;;
48963;SDS011;34776;48.180;16.420;2024-03-06T01:12:37;32.15;;;18.50;;
48963;SDS011;34776;48.180;16.420;2024-03-06T01:15:09;34.90;;;17.55;;
48963;SDS011;34776;48.180;16.420;2024-03-06T01:17:34;31.58;;;16.77;;
48963;SDS011;34776;48.180;16.420;2024-03-06T01:20:01;30.63;;;16.90;;
48963;SDS011;34776;48.180;16.420;2024-03-06T01:22:28;31.25;;;16.88;;
48963;SDS011;34776;48.180;16.420;2024-03-06T01:24:54;29.95;;;14.57;;
48963;SDS011;34776;48.180;16.420;2024-03-06T01:27:19;31.40;;;18.27;;
48963;SDS011;34776;48.180;16.420;2024-03-06T01:29:45;32.75;;;18.88;;
48963;SDS011;34776;48.180;16.420;2024-03-06T01:32:11;33.28;;;17.92;;
48963;SDS011;34776;48.180;16.420;2024-03-06T01:34:38;35.00;;;18.02;;
48963;SDS011;34776;48.180;16.420;2024-03-06T01:37:03;36.20;;;17.40;;
48963;SDS011;34776;48.180;16.420;2024-03-06T01:39:28;30.00;;;16.35;;
48963;SDS011;34776;48.180;16.420;2024-03-06T01:41:54;36.30;;;18.88;;
48963;SDS011;34776;48.180;16.420;2024-03-06T01:44:19;24.95;;;15.88;;
48963;SDS011;34776;48.180;16.420;2024-03-06T01:46:45;32.05;;;15.98;;
48963;SDS011;34776;48.180;16.420;2024-03-06T01:49:11;36.03;;;18.80;;
48963;SDS011;34776;48.180;16.420;2024-03-06T01:51:38;32.05;;;18.05;;
48963;SDS011;34776;48.180;16.420;2024-03-06T01:54:10;36.75;;;18.45;;
48963;SDS011;34776;48.180;16.420;2024-03-06T01:56:36;39.60;;;19.60;;
48963;SDS011;34776;48.180;16.420;2024-03-06T01:59:06;34.13;;;18.15;;
48963;SDS011;34776;48.180;16.420;2024-03-06T02:01:32;36.53;;;18.42;;
48963;SDS011;34776;48.180;16.420;2024-03-06T02:03:58;27.98;;;14.55;;
48963;SDS011;34776;48.180;16.420;2024-03-06T02:06:25;32.25;;;16.85;;
48963;SDS011;34776;48.180;16.420;2024-03-06T02:08:52;38.28;;;19.42;;
48963;SDS011;34776;48.180;16.420;2024-03-06T02:11:18;34.15;;;17.42;;
48963;SDS011;34776;48.180;16.420;2024-03-06T02:13:43;40.05;;;19.13;;
48963;SDS011;34776;48.180;16.420;2024-03-06T02:16:09;30.50;;;19.02;;
48963;SDS011;34776;48.180;16.420;2024-03-06T02:18:35;29.88;;;17.45;;
48963;SDS011;34776;48.180;16.420;2024-03-06T02:21:02;32.40;;;16.67;;
48963;SDS011;34776;48.180;16.420;2024-03-06T02:23:29;36.13;;;17.95;;
48963;SDS011;34776;48.180;16.420;2024-03-06T02:25:55;31.25;;;18.30;;
48963;SDS011;34776;48.180;16.420;2024-03-06T02:28:20;37.25;;;21.02;;
48963;SDS011;34776;48.180;16.420;2024-03-06T02:30:49;34.38;;;19.48;;
48963;SDS011;34776;48.180;16.420;2024-03-06T02:33:15;33.28;;;18.17;;
48963;SDS011;34776;48.180;16.420;2024-03-06T02:35:42;33.88;;;18.15;;
48963;SDS011;34776;48.180;16.420;2024-03-06T02:38:09;29.98;;;18.23;;
48963;SDS011;34776;48.180;16.420;2024-03-06T02:40:34;29.15;;;17.75;;
48963;SDS011;34776;48.180;16.420;2024-03-06T02:43:00;31.52;;;17.67;;
48963;SDS011;34776;48.180;16.420;2024-03-06T02:45:25;40.50;;;19.23;;
48963;SDS011;34776;48.180;16.420;2024-03-06T02:47:50;38.08;;;17.80;;
48963;SDS011;34776;48.180;16.420;2024-03-06T02:50:16;36.72;;;19.60;;
48963;SDS011;34776;48.180;16.420;2024-03-06T02:52:42;35.00;;;19.88;;
48963;SDS011;34776;48.180;16.420;2024-03-06T02:55:08;35.78;;;19.45;;
48963;SDS011;34776;48.180;16.420;2024-03-06T02:57:34;38.13;;;20.15;;
48963;SDS011;34776;48.180;16.420;2024-03-06T02:59:59;34.80;;;19.25;;
48963;SDS011;34776;48.180;16.420;2024-03-06T03:02:25;40.78;;;20.23;;
48963;SDS011;34776;48.180;16.420;2024-03-06T03:04:51;35.03;;;18.88;;
48963;SDS011;34776;48.180;16.420;2024-03-06T03:07:17;39.25;;;19.17;;
48963;SDS011;34776;48.180;16.420;2024-03-06T03:09:44;35.67;;;20.05;;
48963;SDS011;34776;48.180;16.420;2024-03-06T03:12:09;35.88;;;20.20;;
48963;SDS011;34776;48.180;16.420;2024-03-06T03:14:36;32.45;;;17.85;;
48963;SDS011;34776;48.180;16.420;2024-03-06T03:17:02;39.47;;;19.30;;
48963;SDS011;34776;48.180;16.420;2024-03-06T03:19:27;34.20;;;19.55;;
48963;SDS011;34776;48.180;16.420;2024-03-06T03:21:53;37.38;;;20.08;;
48963;SDS011;34776;48.180;16.420;2024-03-06T03:24:18;35.08;;;19.30;;
48963;SDS011;34776;48.180;16.420;2024-03-06T03:26:46;39.90;;;19.77;;
48963;SDS011;34776;48.180;16.420;2024-03-06T03:29:11;42.03;;;19.80;;
48963;SDS011;34776;48.180;16.420;2024-03-06T03:31:36;38.45;;;19.77;;
48963;SDS011;34776;48.180;16.420;2024-03-06T03:34:03;36.35;;;18.90;;
48963;SDS011;34776;48.180;16.420;2024-03-06T03:36:29;38.40;;;19.08;;
48963;SDS011;34776;48.180;16.420;2024-03-06T03:38:55;39.28;;;20.98;;
48963;SDS011;34776;48.180;16.420;2024-03-06T03:41:20;39.70;;;21.75;;
48963;SDS011;34776;48.180;16.420;2024-03-06T03:43:45;39.63;;;21.35;;
48963;SDS011;34776;48.180;16.420;2024-03-06T03:46:12;36.67;;;19.58;;
48963;SDS011;34776;48.180;16.420;2024-03-06T03:48:39;35.63;;;19.52;;
48963;SDS011;34776;48.180;16.420;2024-03-06T03:51:04;42.47;;;19.90;;
48963;SDS011;34776;48.180;16.420;2024-03-06T03:53:32;41.58;;;21.67;;
48963;SDS011;34776;48.180;16.420;2024-03-06T03:56:00;40.85;;;20.08;;
48963;SDS011;34776;48.180;16.420;2024-03-06T03:58:27;43.75;;;19.98;;
48963;SDS011;34776;48.180;16.420;2024-03-06T04:00:56;35.42;;;18.02;;
48963;SDS011;34776;48.180;16.420;2024-03-06T04:03:21;35.78;;;18.92;;
48963;SDS011;34776;48.180;16.420;2024-03-06T04:05:48;37.67;;;19.85;;
48963;SDS011;34776;48.180;16.420;2024-03-06T04:08:13;38.03;;;19.30;;
48963;SDS011;34776;48.180;16.420;2024-03-06T04:10:39;40.47;;;21.50;;
48963;SDS011;34776;48.180;16.420;2024-03-06T04:13:04;37.08;;;18.95;;
48963;SDS011;34776;48.180;16.420;2024-03-06T04:15:32;42.80;;;20.25;;
48963;SDS011;34776;48.180;16.420;2024-03-06T04:17:58;38.88;;;19.95;;
48963;SDS011;34776;48.180;16.420;2024-03-06T04:20:23;35.00;;;19.33;;
48963;SDS011;34776;48.180;16.420;2024-03-06T04:22:50;42.85;;;20.50;;
48963;SDS011;34776;48.180;16.420;2024-03-06T04:25:16;43.97;;;21.30;;
48963;SDS011;34776;48.180;16.420;2024-03-06T04:27:42;41.22;;;19.83;;
48963;SDS011;34776;48.180;16.420;2024-03-06T04:30:07;40.10;;;20.33;;
48963;SDS011;34776;48.180;16.420;2024-03-06T04:32:33;37.05;;;19.00;;
48963;SDS011;34776;48.180;16.420;2024-03-06T04:34:58;33.92;;;18.77;;
48963;SDS011;34776;48.180;16.420;2024-03-06T04:37:24;41.72;;;18.33;;
48963;SDS011;34776;48.180;16.420;2024-03-06T04:39:51;35.78;;;19.40;;
48963;SDS011;34776;48.180;16.420;2024-03-06T04:42:17;33.20;;;18.58;;
48963;SDS011;34776;48.180;16.420;2024-03-06T04:44:42;34.70;;;17.67;;
48963;SDS011;34776;48.180;16.420;2024-03-06T04:47:08;39.70;;;18.90;;
48963;SDS011;34776;48.180;16.420;2024-03-06T04:49:33;36.22;;;19.08;;
48963;SDS011;34776;48.180;16.420;2024-03-06T04:51:59;39.03;;;17.75;;
48963;SDS011;34776;48.180;16.420;2024-03-06T04:54:26;32.92;;;16.60;;
48963;SDS011;34776;48.180;16.420;2024-03-06T04:56:53;43.50;;;17.25;;
48963;SDS011;34776;48.180;16.420;2024-03-06T04:59:18;33.80;;;18.23;;
48963;SDS011;34776;48.180;16.420;2024-03-06T05:01:43;33.75;;;18.50;;
48963;SDS011;34776;48.180;16.420;2024-03-06T05:04:09;31.60;;;17.35;;
48963;SDS011;34776;48.180;16.420;2024-03-06T05:06:35;32.22;;;18.13;;
48963;SDS011;34776;48.180;16.420;2024-03-06T05:09:00;36.80;;;18.52;;
48963;SDS011;34776;48.180;16.420;2024-03-06T05:11:27;32.90;;;17.65;;
48963;SDS011;34776;48.180;16.420;2024-03-06T05:13:52;36.65;;;18.25;;
48963;SDS011;34776;48.180;16.420;2024-03-06T05:16:19;41.72;;;20.85;;
48963;SDS011;34776;48.180;16.420;2024-03-06T05:18:47;29.58;;;17.50;;
48963;SDS011;34776;48.180;16.420;2024-03-06T05:21:12;49.65;;;23.88;;
48963;SDS011;34776;48.180;16.420;2024-03-06T05:23:39;36.00;;;17.95;;
48963;SDS011;34776;48.180;16.420;2024-03-06T05:26:04;28.27;;;15.63;;
48963;SDS011;34776;48.180;16.420;2024-03-06T05:28:29;32.45;;;16.77;;
48963;SDS011;34776;48.180;16.420;2024-03-06T05:30:55;27.67;;;15.93;;
48963;SDS011;34776;48.180;16.420;2024-03-06T05:33:20;27.70;;;15.80;;
48963;SDS011;34776;48.180;16.420;2024-03-06T05:35:46;33.65;;;16.67;;
48963;SDS011;34776;48.180;16.420;2024-03-06T05:38:14;28.40;;;15.77;;
48963;SDS011;34776;48.180;16.420;2024-03-06T05:40:39;28.38;;;15.88;;
48963;SDS011;34776;48.180;16.420;2024-03-06T05:43:08;37.20;;;18.58;;
48963;SDS011;34776;48.180;16.420;2024-03-06T05:45:35;28.15;;;16.13;;
48963;SDS011;34776;48.180;16.420;2024-03-06T05:48:00;25.75;;;15.35;;
48963;SDS011;34776;48.180;16.420;2024-03-06T05:50:26;28.60;;;14.95;;
48963;SDS011;34776;48.180;16.420;2024-03-06T05:52:52;32.03;;;16.65;;
48963;SDS011;34776;48.180;16.420;2024-03-06T05:55:17;29.23;;;14.93;;
48963;SDS011;34776;48.180;16.420;2024-03-06T05:57:44;29.30;;;15.82;;
48963;SDS011;34776;48.180;16.420;2024-03-06T06:00:11;50.78;;;26.35;;
48963;SDS011;34776;48.180;16.420;2024-03-06T06:02:37;25.42;;;14.88;;
48963;SDS011;34776;48.180;16.420;2024-03-06T06:05:02;30.05;;;14.57;;
48963;SDS011;34776;48.180;16.420;2024-03-06T06:07:29;22.83;;;13.45;;
48963;SDS011;34776;48.180;16.420;2024-03-06T06:09:55;31.05;;;15.73;;
48963;SDS011;34776;48.180;16.420;2024-03-06T06:12:22;24.20;;;14.68;;
48963;SDS011;34776;48.180;16.420;2024-03-06T06:14:47;28.02;;;14.35;;
48963;SDS011;34776;48.180;16.420;2024-03-06T06:17:13;26.10;;;12.85;;
48963;SDS011;34776;48.180;16.420;2024-03-06T06:19:41;27.77;;;14.77;;
48963;SDS011;34776;48.180;16.420;2024-03-06T06:22:08;26.42;;;12.82;;
48963;SDS011;34776;48.180;16.420;2024-03-06T06:24:36;24.00;;;12.57;;
48963;SDS011;34776;48.180;16.420;2024-03-06T06:27:02;24.02;;;13.35;;
48963;SDS011;34776;48.180;16.420;2024-03-06T06:29:27;28.23;;;14.05;;
48963;SDS011;34776;48.180;16.420;2024-03-06T06:31:54;25.25;;;13.82;;
48963;SDS011;34776;48.180;16.420;2024-03-06T06:34:19;24.38;;;12.45;;
48963;SDS011;34776;48.180;16.420;2024-03-06T06:36:46;25.17;;;13.55;;
48963;SDS011;34776;48.180;16.420;2024-03-06T06:39:11;21.92;;;12.75;;
48963;SDS011;34776;48.180;16.420;2024-03-06T06:41:37;20.33;;;12.05;;
48963;SDS011;34776;48.180;16.420;2024-03-06T06:44:03;22.23;;;12.77;;
48963;SDS011;34776;48.180;16.420;2024-03-06T06:46:28;22.40;;;12.65;;
48963;SDS011;34776;48.180;16.420;2024-03-06T06:48:54;24.38;;;12.45;;
48963;SDS011;34776;48.180;16.420;2024-03-06T06:51:20;20.17;;;11.98;;
48963;SDS011;34776;48.180;16.420;2024-03-06T06:53:46;22.23;;;12.70;;
48963;SDS011;34776;48.180;16.420;2024-03-06T06:56:11;23.48;;;12.75;;
48963;SDS011;34776;48.180;16.420;2024-03-06T06:58:36;21.42;;;12.40;;
48963;SDS011;34776;48.180;16.420;2024-03-06T07:01:07;24.88;;;13.35;;
48963;SDS011;34776;48.180;16.420;2024-03-06T07:03:32;24.17;;;13.77;;
48963;SDS011;34776;48.180;16.420;2024-03-06T07:05:58;29.20;;;14.68;;
48963;SDS011;34776;48.180;16.420;2024-03-06T07:08:23;23.90;;;11.98;;
48963;SDS011;34776;48.180;16.420;2024-03-06T07:10:50;21.42;;;14.00;;
48963;SDS011;34776;48.180;16.420;2024-03-06T07:13:18;23.85;;;14.70;;
48963;SDS011;34776;48.180;16.420;2024-03-06T07:15:43;25.55;;;13.43;;
48963;SDS011;34776;48.180;16.420;2024-03-06T07:18:08;38.70;;;21.92;;
48963;SDS011;34776;48.180;16.420;2024-03-06T07:20:34;26.58;;;15.60;;
48963;SDS011;34776;48.180;16.420;2024-03-06T07:23:01;25.00;;;14.38;;
48963;SDS011;34776;48.180;16.420;2024-03-06T07:25:26;24.15;;;13.25;;
48963;SDS011;34776;48.180;16.420;2024-03-06T07:27:51;22.83;;;13.80;;
48963;SDS011;34776;48.180;16.420;2024-03-06T07:30:17;22.52;;;13.73;;
48963;SDS011;34776;48.180;16.420;2024-03-06T07:32:45;23.33;;;12.88;;
48963;SDS011;34776;48.180;16.420;2024-03-06T07:35:12;33.17;;;14.55;;
48963;SDS011;34776;48.180;16.420;2024-03-06T07:37:37;24.45;;;14.25;;
48963;SDS011;34776;48.180;16.420;2024-03-06T07:40:08;27.73;;;14.48;;
48963;SDS011;34776;48.180;16.420;2024-03-06T07:42:34;28.17;;;14.38;;
48963;SDS011;34776;48.180;16.420;2024-03-06T07:45:00;25.52;;;13.50;;
48963;SDS011;34776;48.180;16.420;2024-03-06T07:47:25;27.25;;;13.70;;
48963;SDS011;34776;48.180;16.420;2024-03-06T07:49:51;26.25;;;14.30;;
48963;SDS011;34776;48.180;16.420;2024-03-06T07:52:17;24.15;;;14.23;;
48963;SDS011;34776;48.180;16.420;2024-03-06T07:54:42;22.70;;;14.18;;
48963;SDS011;34776;48.180;16.420;2024-03-06T07:57:07;27.02;;;15.40;;
48963;SDS011;34776;48.180;16.420;2024-03-06T07:59:34;27.13;;;13.73;;
48963;SDS011;34776;48.180;16.420;2024-03-06T08:02:00;23.92;;;14.73;;
48963;SDS011;34776;48.180;16.420;2024-03-06T08:04:26;25.00;;;13.93;;
48963;SDS011;34776;48.180;16.420;2024-03-06T08:06:52;20.70;;;18.40;;
48963;SDS011;34776;48.180;16.420;2024-03-06T08:09:17;26.92;;;21.48;;
48963;SDS011;34776;48.180;16.420;2024-03-06T08:11:44;23.17;;;20.30;;
48963;SDS011;34776;48.180;16.420;2024-03-06T08:14:10;22.00;;;19.45;;
48963;SDS011;34776;48.180;16.420;2024-03-06T08:16:35;23.75;;;20.42;;
48963;SDS011;34776;48.180;16.420;2024-03-06T08:19:02;25.48;;;20.85;;
48963;SDS011;34776;48.180;16.420;2024-03-06T08:21:30;23.48;;;20.10;;
48963;SDS011;34776;48.180;16.420;2024-03-06T08:23:55;25.77;;;20.83;;
48963;SDS011;34776;48.180;16.420;2024-03-06T08:26:22;22.13;;;18.70;;
48963;SDS011;34776;48.180;16.420;2024-03-06T08:28:48;24.55;;;21.23;;
48963;SDS011;34776;48.180;16.420;2024-03-06T08:31:14;21.13;;;18.83;;
48963;SDS011;34776;48.180;16.420;2024-03-06T08:33:39;24.15;;;20.20;;
48963;SDS011;34776;48.180;16.420;2024-03-06T08:36:04;23.58;;;20.33;;
48963;SDS011;34776;48.180;16.420;2024-03-06T08:38:30;20.90;;;17.63;;
48963;SDS011;34776;48.180;16.420;2024-03-06T08:40:55;22.83;;;19.48;;
48963;SDS011;34776;48.180;16.420;2024-03-06T08:43:20;21.58;;;18.45;;
48963;SDS011;34776;48.180;16.420;2024-03-06T08:45:46;20.77;;;16.83;;
48963;SDS011;34776;48.180;16.420;2024-03-06T08:48:13;23.25;;;18.60;;
48963;SDS011;34776;48.180;16.420;2024-03-06T08:50:38;20.65;;;17.20;;
48963;SDS011;34776;48.180;16.420;2024-03-06T08:53:03;23.02;;;19.42;;
48963;SDS011;34776;48.180;16.420;2024-03-06T08:55:29;25.02;;;18.77;;
48963;SDS011;34776;48.180;16.420;2024-03-06T08:57:54;21.85;;;19.50;;
48963;SDS011;34776;48.180;16.420;2024-03-06T09:00:19;25.30;;;21.38;;
48963;SDS011;34776;48.180;16.420;2024-03-06T09:02:45;24.67;;;21.83;;
48963;SDS011;34776;48.180;16.420;2024-03-06T09:05:10;25.90;;;21.25;;
48963;SDS011;34776;48.180;16.420;2024-03-06T09:07:37;25.58;;;21.33;;
48963;SDS011;34776;48.180;16.420;2024-03-06T09:10:05;24.92;;;21.70;;
48963;SDS011;34776;48.180;16.420;2024-03-06T09:12:34;29.98;;;22.85;;
48963;SDS011;34776;48.180;16.420;2024-03-06T09:15:00;23.35;;;19.48;;
48963;SDS011;34776;48.180;16.420;2024-03-06T09:17:26;28.58;;;20.13;;
48963;SDS011;34776;48.180;16.420;2024-03-06T09:19:52;24.30;;;20.92;;
48963;SDS011;34776;48.180;16.420;2024-03-06T09:22:19;21.65;;;18.38;;
48963;SDS011;34776;48.180;16.420;2024-03-06T09:24:45;25.70;;;20.63;;
48963;SDS011;34776;48.180;16.420;2024-03-06T09:27:10;25.88;;;20.77;;
48963;SDS011;34776;48.180;16.420;2024-03-06T09:29:39;23.52;;;18.95;;
48963;SDS011;34776;48.180;16.420;2024-03-06T09:32:05;21.77;;;18.55;;
48963;SDS011;34776;48.180;16.420;2024-03-06T09:34:31;19.63;;;17.52;;
48963;SDS011;34776;48.180;16.420;2024-03-06T09:36:57;21.50;;;18.20;;
48963;SDS011;34776;48.180;16.420;2024-03-06T09:39:23;21.65;;;17.48;;
48963;SDS011;34776;48.180;16.420;2024-03-06T09:41:51;23.40;;;17.63;;
48963;SDS011;34776;48.180;16.420;2024-03-06T09:44:18;24.83;;;17.92;;
48963;SDS011;34776;48.180;16.420;2024-03-06T09:46:45;19.80;;;17.55;;
48963;SDS011;34776;48.180;16.420;2024-03-06T09:49:12;22.05;;;19.05;;
48963;SDS011;34776;48.180;16.420;2024-03-06T09:51:40;27.48;;;22.77;;
48963;SDS011;34776;48.180;16.420;2024-03-06T09:54:10;26.20;;;22.02;;
48963;SDS011;34776;48.180;16.420;2024-03-06T09:56:37;24.35;;;20.48;;
48963;SDS011;34776;48.180;16.420;2024-03-06T09:59:03;23.17;;;20.67;;
48963;SDS011;34776;48.180;16.420;2024-03-06T10:01:29;25.40;;;22.50;;
48963;SDS011;34776;48.180;16.420;2024-03-06T10:03:58;24.73;;;21.85;;
48963;SDS011;34776;48.180;16.420;2024-03-06T10:06:23;31.38;;;25.88;;
48963;SDS011;34776;48.180;16.420;2024-03-06T10:08:50;29.85;;;22.80;;
48963;SDS011;34776;48.180;16.420;2024-03-06T10:11:17;23.10;;;20.45;;
48963;SDS011;34776;48.180;16.420;2024-03-06T10:13:42;24.98;;;21.08;;
48963;SDS011;34776;48.180;16.420;2024-03-06T10:16:10;25.13;;;21.42;;
48963;SDS011;34776;48.180;16.420;2024-03-06T10:18:36;24.85;;;20.70;;
48963;SDS011;34776;48.180;16.420;2024-03-06T10:21:03;23.77;;;18.77;;
48963;SDS011;34776;48.180;16.420;2024-03-06T10:23:30;22.92;;;19.75;;
48963;SDS011;34776;48.180;16.420;2024-03-06T10:25:59;20.88;;;18.50;;
48963;SDS011;34776;48.180;16.420;2024-03-06T10:28:25;16.58;;;12.25;;
48963;SDS011;34776;48.180;16.420;2024-03-06T10:31:02;19.77;;;17.17;;
48963;SDS011;34776;48.180;16.420;2024-03-06T10:33:31;23.30;;;16.90;;
48963;SDS011;34776;48.180;16.420;2024-03-06T10:35:56;18.08;;;16.17;;
48963;SDS011;34776;48.180;16.420;2024-03-06T10:38:22;21.90;;;17.50;;
48963;SDS011;34776;48.180;16.420;2024-03-06T10:40:50;20.00;;;16.98;;
48963;SDS011;34776;48.180;16.420;2024-03-06T10:43:18;18.90;;;16.90;;
48963;SDS011;34776;48.180;16.420;2024-03-06T10:46:01;23.83;;;16.45;;
48963;SDS011;34776;48.180;16.420;2024-03-06T10:48:31;18.65;;;16.63;;
48963;SDS011;34776;48.180;16.420;2024-03-06T10:50:56;20.50;;;17.75;;
48963;SDS011;34776;48.180;16.420;2024-03-06T10:53:22;18.38;;;16.42;;
48963;SDS011;34776;48.180;16.420;2024-03-06T10:55:51;21.27;;;17.15;;
48963;SDS011;34776;48.180;16.420;2024-03-06T10:58:23;20.05;;;17.55;;
48963;SDS011;34776;48.180;16.420;2024-03-06T11:00:57;21.02;;;16.75;;
48963;SDS011;34776;48.180;16.420;2024-03-06T11:03:23;18.83;;;16.83;;
48963;SDS011;34776;48.180;16.420;2024-03-06T11:05:51;18.65;;;16.70;;
48963;SDS011;34776;48.180;16.420;2024-03-06T11:08:18;20.45;;;17.88;;
48963;SDS011;34776;48.180;16.420;2024-03-06T11:10:44;21.60;;;18.95;;
48963;SDS011;34776;48.180;16.420;2024-03-06T11:15:45;23.30;;;18.02;;
48963;SDS011;34776;48.180;16.420;2024-03-06T11:18:40;20.92;;;17.63;;
48963;SDS011;34776;48.180;16.420;2024-03-06T11:23:36;22.00;;;18.40;;
48963;SDS011;34776;48.180;16.420;2024-03-06T11:26:42;21.30;;;18.67;;
48963;SDS011;34776;48.180;16.420;2024-03-06T11:29:15;20.25;;;18.10;;
48963;SDS011;34776;48.180;16.420;2024-03-06T11:31:56;19.88;;;17.70;;
48963;SDS011;34776;48.180;16.420;2024-03-06T11:34:24;18.70;;;16.27;;
48963;SDS011;34776;48.180;16.420;2024-03-06T11:36:53;21.15;;;16.83;;
48963;SDS011;34776;48.180;16.420;2024-03-06T11:39:21;19.80;;;17.23;;
48963;SDS011;34776;48.180;16.420;2024-03-06T11:41:47;20.15;;;17.52;;
48963;SDS011;34776;48.180;16.420;2024-03-06T11:44:17;27.60;;;17.80;;
48963;SDS011;34776;48.180;16.420;2024-03-06T11:51:54;20.92;;;17.05;;
48963;SDS011;34776;48.180;16.420;2024-03-06T11:54:22;21.77;;;18.80;;
48963;SDS011;34776;48.180;16.420;2024-03-06T11:56:49;20.88;;;18.33;;
48963;SDS011;34776;48.180;16.420;2024-03-06T11:59:20;20.42;;;17.13;;
48963;SDS011;34776;48.180;16.420;2024-03-06T12:01:47;21.63;;;18.55;;
48963;SDS011;34776;48.180;16.420;2024-03-06T12:04:13;20.05;;;17.73;;
48963;SDS011;34776;48.180;16.420;2024-03-06T12:06:39;20.33;;;18.05;;
48963;SDS011;34776;48.180;16.420;2024-03-06T12:09:05;22.98;;;19.20;;
48963;SDS011;34776;48.180;16.420;2024-03-06T12:11:35;20.05;;;16.95;;
48963;SDS011;34776;48.180;16.420;2024-03-06T12:14:03;25.05;;;21.63;;
48963;SDS011;34776;48.180;16.420;2024-03-06T12:16:28;22.83;;;19.85;;
48963;SDS011;34776;48.180;16.420;2024-03-06T12:18:55;22.25;;;19.70;;
48963;SDS011;34776;48.180;16.420;2024-03-06T12:21:32;22.55;;;19.58;;
48963;SDS011;34776;48.180;16.420;2024-03-06T12:24:05;23.38;;;19.52;;
48963;SDS011;34776;48.180;16.420;2024-03-06T12:26:36;21.15;;;18.92;;
48963;SDS011;34776;48.180;16.420;2024-03-06T12:29:10;22.58;;;18.00;;
48963;SDS011;34776;48.180;16.420;2024-03-06T12:31:41;20.52;;;18.20;;
48963;SDS011;34776;48.180;16.420;2024-03-06T12:34:07;22.80;;;19.80;;
48963;SDS011;34776;48.180;16.420;2024-03-06T12:36:32;18.17;;;16.15;;
48963;SDS011;34776;48.180;16.420;2024-03-06T12:38:58;26.98;;;19.70;;
48963;SDS011;34776;48.180;16.420;2024-03-06T12:41:25;24.23;;;17.60;;
48963;SDS011;34776;48.180;16.420;2024-03-06T12:43:51;23.63;;;19.65;;
48963;SDS011;34776;48.180;16.420;2024-03-06T12:46:17;21.55;;;17.50;;
48963;SDS011;34776;48.180;16.420;2024-03-06T12:48:42;22.95;;;20.23;;
48963;SDS011;34776;48.180;16.420;2024-03-06T12:51:08;21.45;;;19.20;;
48963;SDS011;34776;48.180;16.420;2024-03-06T12:53:33;20.60;;;18.40;;
48963;SDS011;34776;48.180;16.420;2024-03-06T12:56:00;24.63;;;20.95;;
48963;SDS011;34776;48.180;16.420;2024-03-06T12:58:25;21.35;;;18.48;;
48963;SDS011;34776;48.180;16.420;2024-03-06T13:00:52;21.02;;;16.63;;
48963;SDS011;34776;48.180;16.420;2024-03-06T13:03:19;24.50;;;19.55;;
48963;SDS011;34776;48.180;16.420;2024-03-06T13:05:45;21.88;;;19.58;;
48963;SDS011;34776;48.180;16.420;2024-03-06T13:08:12;22.45;;;19.20;;
48963;SDS011;34776;48.180;16.420;2024-03-06T13:10:39;21.73;;;18.00;;
48963;SDS011;34776;48.180;16.420;2024-03-06T13:13:05;22.77;;;19.40;;
48963;SDS011;34776;48.180;16.420;2024-03-06T13:15:31;21.20;;;18.60;;
48963;SDS011;34776;48.180;16.420;2024-03-06T13:17:59;23.92;;;19.85;;
48963;SDS011;34776;48.180;16.420;2024-03-06T13:20:24;21.80;;;18.92;;
48963;SDS011;34776;48.180;16.420;2024-03-06T13:22:49;21.42;;;18.15;;
48963;SDS011;34776;48.180;16.420;2024-03-06T13:25:15;20.70;;;17.15;;
48963;SDS011;34776;48.180;16.420;2024-03-06T13:27:40;21.00;;;18.73;;
48963;SDS011;34776;48.180;16.420;2024-03-06T13:30:06;23.48;;;18.55;;
48963;SDS011;34776;48.180;16.420;2024-03-06T13:32:34;21.08;;;18.77;;
48963;SDS011;34776;48.180;16.420;2024-03-06T13:35:00;22.88;;;19.05;;
48963;SDS011;34776;48.180;16.420;2024-03-06T13:37:26;22.55;;;19.88;;
48963;SDS011;34776;48.180;16.420;2024-03-06T13:39:51;21.42;;;13.00;;
48963;SDS011;34776;48.180;16.420;2024-03-06T13:42:19;22.35;;;18.60;;
48963;SDS011;34776;48.180;16.420;2024-03-06T13:44:44;24.48;;;19.50;;
48963;SDS011;34776;48.180;16.420;2024-03-06T13:47:14;21.13;;;18.30;;
48963;SDS011;34776;48.180;16.420;2024-03-06T13:49:41;22.67;;;19.42;;
48963;SDS011;34776;48.180;16.420;2024-03-06T13:52:07;21.75;;;19.02;;
48963;SDS011;34776;48.180;16.420;2024-03-06T13:54:39;24.00;;;18.88;;
48963;SDS011;34776;48.180;16.420;2024-03-06T13:57:06;21.92;;;19.23;;
48963;SDS011;34776;48.180;16.420;2024-03-06T13:59:33;23.00;;;18.25;;
48963;SDS011;34776;48.180;16.420;2024-03-06T14:02:00;21.65;;;18.90;;
48963;SDS011;34776;48.180;16.420;2024-03-06T14:04:28;22.20;;;19.75;;
48963;SDS011;34776;48.180;16.420;2024-03-06T14:06:53;24.95;;;20.40;;
48963;SDS011;34776;48.180;16.420;2024-03-06T14:09:19;22.88;;;18.58;;
48963;SDS011;34776;48.180;16.420;2024-03-06T14:11:44;18.73;;;12.05;;
48963;SDS011;34776;48.180;16.420;2024-03-06T14:14:10;24.00;;;18.05;;
48963;SDS011;34776;48.180;16.420;2024-03-06T14:16:40;24.80;;;20.08;;